x

St. Augustine, Fl (sauf1) Weather Station

10:00pm - Fri 17th Nov 2017 All times are EST. -5 hours from GMT.

  • Wind
    6mph, 7mph gusts
  • Sea Temp 68°f
  • Air Temp 62°f
  • Sea Pressure 1018.8mb
  • St. Augustine, Fl
  • St. Augustine, Fl

More Historic Weather Station data

Upgrade to MSW Pro to gain access to the past 30 days of data for over 8000 Wavebouys and Weather Stations around the globe.

Join

Comparision Forecast

View Surf forecast
   
Fri 11/17 10:00pm 6 7 mph 1018.8mb 68f 62f
9:00pm 7 8 mph 1019.1mb 68f 63f
8:00pm 7 9 mph 1018.9mb 69f 64f
7:00pm 9 10 mph 1018.9mb 69f 65f
6:00pm 15 16 mph 1018.4mb 69f 68f
5:00pm 15 16 mph 1018.5mb 69f 67f
4:00pm 17 18 mph 1018.6mb 69f 67f
3:00pm 13 15 mph 1018.5mb 69f 68f
2:00pm 13 14 mph 1019.2mb 69f 68f
1:00pm 15 15 mph 1019.6mb 68f 68f
12:00pm 11 13 mph 1020.1mb 67f 68f
11:00am 7 7 mph 1020.6mb 67f 68f
10:00am 10 10 mph 1020.5mb 67f 68f
9:00am 5 6 mph 1020.3mb 67f 63f
8:00am 6 7 mph 1019.9mb 67f 57f
7:00am 7 8 mph 1019.5mb 67f 56f
6:00am 7 8 mph 1019.3mb 66f 56f
5:00am 7 9 mph 1019mb 66f 56f
4:00am 5 6 mph 1018.9mb 66f 55f
3:00am 10 11 mph 1018.8mb 66f 56f
2:00am 9 10 mph 1018.7mb 67f 56f
1:00am 7 8 mph 1018.9mb 67f 56f
12:00am 7 7 mph 1019.2mb 66f 58f
Thu 11/16 11:00pm 6 7 mph 1019.3mb 67f 60f
10:00pm 3 3 mph 1019.3mb 67f 62f
9:00pm 1 2 mph 1019.1mb 67f 62f
8:00pm 2 3 mph 1018.5mb 67f 63f
7:00pm 3 5 mph 1018.3mb 67f 64f
6:00pm 7 8 mph 1017.9mb 67f 64f
5:00pm 9 11 mph 1017.6mb 67f 63f
4:00pm 10 13 mph 1017.6mb 67f 63f
3:00pm 15 17 mph 1017.3mb 68f 62f
2:00pm 20 21 mph 1017.6mb 67f 61f
1:00pm 21 24 mph 1018.3mb 67f 60f
12:00pm 23 26 mph 1018.7mb 67f 60f
11:00am 24 28 mph 1019.4mb 67f 60f
10:00am 22 25 mph 1019.5mb 67f 60f
9:00am 16 18 mph 1019.4mb 67f 59f
8:00am 10 14 mph 1018.8mb 67f 56f
7:00am 7 8 mph 1018.3mb 67f 55f
6:00am 8 10 mph 1018mb 67f 57f
5:00am 11 14 mph 1017.8mb 67f 58f
4:00am 9 13 mph 1017.5mb 67f 60f
3:00am 9 10 mph 1017.2mb 67f 59f
2:00am 10 13 mph 1017.5mb 67f 58f
1:00am 18 20 mph 1017.6mb 67f 64f
12:00am 16 17 mph 1017.8mb 67f 64f
Wed 11/15 11:00pm 17 18 mph 1017.8mb 67f 63f
10:00pm 22 23 mph 1018.2mb 68f 63f
9:00pm 24 26 mph 1018.2mb 68f 63f
8:00pm 24 29 mph 1018mb 68f 63f
7:00pm 25 26 mph 1017.7mb 68f 63f
6:00pm 25 26 mph 1017.4mb 68f 63f
5:00pm 24 28 mph 1017.2mb 67f 63f
4:00pm 26 29 mph 1016.9mb 68f 63f
3:00pm 25 30 mph 1016.7mb 68f 64f
2:00pm 28 30 mph 1016.5mb 68f 64f
1:00pm 25 29 mph 1016.9mb 69f 64f
12:00pm 29 31 mph 1017.8mb 69f 64f
11:00am 17 22 mph 1018.8mb 69f 62f
10:00am 16 18 mph 1018.7mb 69f 62f
9:00am 16 20 mph 1018.4mb 69f 62f
8:00am 22 25 mph 1018.2mb 69f 63f
7:00am 24 26 mph 1017.8mb 69f 64f
6:00am 26 29 mph 1017.1mb 69f 65f
5:00am 24 26 mph 1016.7mb 69f 65f
4:00am 25 30 mph 1016.7mb 69f 65f
3:00am 24 28 mph 1016.9mb 69f 65f
2:00am 23 26 mph 1017.2mb 69f 65f
1:00am 24 26 mph 1017.8mb 69f 64f
12:00am 24 29 mph 1018.1mb 69f 64f
Tue 11/14 11:00pm 28 30 mph 1018.5mb 69f 64f
10:00pm 30 32 mph 1018.8mb 69f 65f
9:00pm 24 26 mph 1019.1mb 69f 65f
8:00pm 25 29 mph 1019mb 69f 65f
7:00pm 26 30 mph 1018.7mb 70f 65f
6:00pm 30 33 mph 1018.3mb 70f 65f
5:00pm 30 33 mph 1018.3mb 70f 65f
4:00pm 30 34 mph 1018mb 71f 66f
3:00pm 31 36 mph 1017.9mb 71f 66f
2:00pm 30 32 mph 1018.2mb 71f 67f
1:00pm 26 29 mph 1019mb 71f 67f
12:00pm 24 28 mph 1019.9mb 71f 68f
11:00am 23 28 mph 1020.4mb 71f 68f
10:00am 23 25 mph 1020.6mb 71f 69f
9:00am 24 28 mph 1020.4mb 71f 69f
8:00am 24 26 mph 1020.1mb 71f 69f
7:00am 24 28 mph 1019.6mb 71f 69f
6:00am 23 26 mph 1019.3mb 71f 68f
5:00am 24 26 mph 1019.1mb 71f 69f